Time;durP1;ratioP1;P1;durP2;ratioP2;P2;SDS_P1;SDS_P2;PMS_P1;PMS_P2;Temp;Humidity;BMP_temperature;BMP_pressure;BME280_temperature;BME280_humidity;BME280_pressure;Samples;Min_cycle;Max_cycle;Signal;HPM_P1;HPM_P2
2023/10/22 00:02:59;;;;;;;40.67;38.58;;;;;;;17.45;100.00;100691.31;5058772;28;20113;-76
2023/10/22 00:05:26;;;;;;;37.15;35.13;;;;;;;17.53;100.00;100696.25;5063628;28;20053;-77
2023/10/22 00:08:04;;;;;;;42.08;39.78;;;;;;;17.70;100.00;100688.91;5069583;28;20048;-78
2023/10/22 00:10:31;;;;;;;42.70;40.50;;;;;;;17.74;100.00;100686.53;5061728;28;20056;-78
2023/10/22 00:12:58;;;;;;;42.00;39.60;;;;;;;17.88;100.00;100687.72;5062174;28;20049;-76
2023/10/22 00:15:25;;;;;;;40.05;37.70;;;;;;;17.77;100.00;100691.38;5068138;28;20048;-76
2023/10/22 00:17:53;;;;;;;34.60;32.70;;;;;;;17.13;100.00;100694.72;5054493;28;20057;-76
2023/10/22 00:20:21;;;;;;;42.42;40.15;;;;;;;16.86;100.00;100695.44;5061094;28;20052;-77
2023/10/22 00:22:51;;;;;;;36.72;34.72;;;;;;;16.51;100.00;100701.06;5068068;28;20041;-77
2023/10/22 00:25:21;;;;;;;36.72;34.72;;;;;;;16.23;100.00;100693.97;5068977;28;20053;-76
2023/10/22 00:27:55;;;;;;;36.33;34.35;;;;;;;16.09;100.00;100690.78;5058977;28;20489;-76
2023/10/22 00:30:25;;;;;;;40.30;38.20;;;;;;;16.01;100.00;100685.84;5066019;28;20147;-76
2023/10/22 00:32:51;;;;;;;33.88;32.17;;;;;;;15.82;100.00;100698.63;5063637;28;20450;-77
2023/10/22 00:35:18;;;;;;;36.60;34.85;;;;;;;15.71;100.00;100692.28;5065972;28;20059;-76
2023/10/22 00:37:52;;;;;;;44.85;42.72;;;;;;;15.84;100.00;100698.38;5068407;28;20101;-75
2023/10/22 00:40:19;;;;;;;31.00;29.30;;;;;;;15.97;100.00;100698.06;5068974;28;20428;-74
2023/10/22 00:42:48;;;;;;;33.03;31.23;;;;;;;15.94;100.00;100691.31;5067821;28;20071;-75
2023/10/22 00:45:15;;;;;;;32.45;30.65;;;;;;;15.71;100.00;100684.25;5059751;28;20508;-76
2023/10/22 00:47:42;;;;;;;45.53;43.13;;;;;;;15.70;100.00;100688.00;5066167;28;20048;-76
2023/10/22 00:50:10;;;;;;;42.33;40.13;;;;;;;15.41;100.00;100681.78;5063864;28;20049;-74
2023/10/22 00:52:37;;;;;;;38.42;36.53;;;;;;;15.49;100.00;100686.78;5058595;28;20056;-76
2023/10/22 00:55:13;;;;;;;33.80;32.00;;;;;;;15.72;100.00;100683.19;5066116;28;20071;-77
2023/10/22 00:57:40;;;;;;;39.85;37.65;;;;;;;15.77;100.00;100685.97;5070019;28;20055;-75
2023/10/22 01:00:09;;;;;;;43.63;41.33;;;;;;;16.14;100.00;100690.06;5060119;28;20052;-76
2023/10/22 01:02:36;;;;;;;40.25;38.15;;;;;;;16.20;100.00;100684.53;5054602;28;20110;-76
2023/10/22 01:05:05;;;;;;;42.90;40.70;;;;;;;16.03;100.00;100689.06;5063421;28;20049;-74
2023/10/22 01:07:33;;;;;;;48.35;45.83;;;;;;;16.15;100.00;100686.31;5070025;28;20443;-76
2023/10/22 01:10:00;;;;;;;38.38;36.38;;;;;;;16.40;100.00;100691.25;5066251;28;20139;-76
2023/10/22 01:12:35;;;;;;;43.67;41.58;;;;;;;16.44;100.00;100682.50;5058295;28;20045;-76
2023/10/22 01:15:02;;;;;;;48.90;46.38;;;;;;;16.38;100.00;100686.16;5061625;28;20504;-77
2023/10/22 01:17:29;;;;;;;44.42;41.75;;;;;;;16.30;100.00;100693.78;5058109;28;20090;-77
2023/10/22 01:19:56;;;;;;;46.17;43.58;;;;;;;16.50;100.00;100699.47;5071256;28;20636;-77
2023/10/22 01:22:23;;;;;;;49.53;46.72;;;;;;;16.41;100.00;100715.16;5070166;28;20412;-76
2023/10/22 01:24:54;;;;;;;44.50;42.00;;;;;;;16.60;100.00;100709.53;5055815;28;20051;-75
2023/10/22 01:27:21;;;;;;;48.45;45.75;;;;;;;16.55;100.00;100701.41;5068296;28;20609;-75
2023/10/22 01:29:48;;;;;;;48.67;45.13;;;;;;;16.37;100.00;100722.06;5051956;28;20103;-76
2023/10/22 01:32:15;;;;;;;51.53;48.78;;;;;;;16.34;100.00;100737.78;5052007;28;20045;-75
2023/10/22 01:34:44;;;;;;;45.88;43.47;;;;;;;16.23;100.00;100748.34;5059088;28;20056;-76
2023/10/22 01:37:23;;;;;;;42.08;39.88;;;;;;;16.48;100.00;100755.19;5066010;28;20055;-76
2023/10/22 01:39:59;;;;;;;50.42;47.65;;;;;;;16.12;100.00;100743.88;5065749;28;20053;-77
2023/10/22 01:42:26;;;;;;;49.65;46.97;;;;;;;15.60;100.00;100743.97;5058906;28;20055;-75
2023/10/22 01:44:53;;;;;;;45.00;42.67;;;;;;;15.70;100.00;100752.25;5070747;28;20482;-77
2023/10/22 01:47:20;;;;;;;43.85;41.45;;;;;;;15.95;100.00;100756.44;5056246;28;20049;-77
2023/10/22 01:49:48;;;;;;;45.30;42.72;;;;;;;16.16;100.00;100758.44;5073151;28;20076;-76
2023/10/22 01:52:15;;;;;;;43.40;41.17;;;;;;;16.09;100.00;100748.91;5066941;28;20110;-76
2023/10/22 01:54:42;;;;;;;51.28;48.42;;;;;;;15.89;100.00;100765.44;5063927;28;20432;-75
2023/10/22 01:57:10;;;;;;;42.42;40.13;;;;;;;15.62;100.00;100774.00;5058379;28;20044;-75
2023/10/22 01:59:38;;;;;;;41.35;39.05;;;;;;;15.74;100.00;100761.41;5063793;28;20155;-76
2023/10/22 02:02:05;;;;;;;48.65;46.15;;;;;;;15.68;100.00;100766.91;5057702;28;20523;-76
2023/10/22 02:04:33;;;;;;;49.38;46.75;;;;;;;15.75;100.00;100768.38;5059512;28;20417;-76
2023/10/22 02:07:00;;;;;;;40.63;38.35;;;;;;;15.80;100.00;100754.28;5072600;28;20055;-77
2023/10/22 02:09:27;;;;;;;42.00;39.60;;;;;;;15.28;100.00;100759.63;5068559;28;20059;-76
2023/10/22 02:11:55;;;;;;;37.50;35.30;;;;;;;15.35;100.00;100761.16;5051064;28;20414;-76
2023/10/22 02:14:26;;;;;;;45.53;43.03;;;;;;;15.25;100.00;100770.81;5054923;28;20056;-76
2023/10/22 02:16:53;;;;;;;42.85;40.45;;;;;;;15.15;100.00;100770.59;5067210;28;20061;-76
2023/10/22 02:19:23;;;;;;;46.85;44.25;;;;;;;15.19;100.00;100774.44;5062980;28;20677;-75
2023/10/22 02:21:53;;;;;;;46.13;43.42;;;;;;;14.91;100.00;100778.66;5059672;28;20060;-76
2023/10/22 02:24:23;;;;;;;45.30;42.67;;;;;;;15.06;100.00;100786.19;5055787;28;20073;-76
2023/10/22 02:26:51;;;;;;;43.92;41.33;;;;;;;14.99;100.00;100783.66;5054250;28;20048;-78
2023/10/22 02:29:26;;;;;;;44.97;42.38;;;;;;;15.04;100.00;100789.13;5056853;28;20063;-77
2023/10/22 02:32:10;;;;;;;50.88;48.08;;;;;;;14.96;100.00;100813.53;5052519;28;20053;-76
2023/10/22 02:34:44;;;;;;;53.15;50.45;;;;;;;15.10;100.00;100820.28;5052718;28;20433;-77
2023/10/22 02:37:12;;;;;;;40.80;38.60;;;;;;;15.11;100.00;100816.56;5068685;28;20124;-77
2023/10/22 02:39:42;;;;;;;42.25;39.80;;;;;;;15.28;100.00;100810.47;5057884;28;20056;-76
2023/10/22 02:42:09;;;;;;;43.45;41.10;;;;;;;14.93;100.00;100822.03;5066070;28;20053;-75
2023/10/22 02:44:37;;;;;;;36.13;34.03;;;;;;;14.95;100.00;100833.31;5060180;28;20047;-77
2023/10/22 02:47:04;;;;;;;36.30;34.00;;;;;;;14.83;100.00;100813.78;5068597;28;20048;-78
2023/10/22 02:49:34;;;;;;;34.65;32.55;;;;;;;14.95;100.00;100832.47;5052774;28;20489;-77
2023/10/22 02:52:02;;;;;;;37.25;35.05;;;;;;;14.70;100.00;100822.81;5067115;28;20048;-77
2023/10/22 02:54:29;;;;;;;35.17;33.17;;;;;;;14.34;100.00;100832.59;5071753;28;20432;-77
2023/10/22 02:57:22;;;;;;;34.00;31.70;;;;;;;14.32;100.00;100831.19;5071912;28;20558;-77
2023/10/22 03:00:00;;;;;;;38.38;36.08;;;;;;;14.68;100.00;100837.47;5064066;28;20045;-78
2023/10/22 03:02:32;;;;;;;42.75;40.45;;;;;;;14.84;100.00;100815.38;5063347;28;20056;-77
2023/10/22 03:05:40;;;;;;;42.63;40.23;;;;;;;14.65;100.00;100833.38;5051719;28;20044;-76
2023/10/22 03:08:07;;;;;;;39.63;37.22;;;;;;;14.73;100.00;100830.34;5059373;28;20294;-78
2023/10/22 03:10:36;;;;;;;42.30;39.80;;;;;;;14.76;100.00;100829.91;5061875;28;20139;-78
2023/10/22 03:13:33;;;;;;;47.28;44.67;;;;;;;14.89;100.00;100834.25;5068762;28;20063;-77
2023/10/22 03:16:11;;;;;;;44.20;41.80;;;;;;;14.79;100.00;100834.78;5062266;28;20045;-77
2023/10/22 03:18:50;;;;;;;39.53;37.33;;;;;;;14.53;100.00;100846.72;5071447;28;20045;-78
2023/10/22 03:21:18;;;;;;;41.42;39.22;;;;;;;14.33;100.00;100848.84;5071734;28;20420;-78
2023/10/22 03:23:45;;;;;;;41.03;38.47;;;;;;;14.15;100.00;100850.50;5051816;28;20060;-78
2023/10/22 03:26:24;;;;;;;36.33;34.13;;;;;;;14.73;100.00;100856.28;5060859;28;20075;-78
2023/10/22 03:28:59;;;;;;;36.55;34.25;;;;;;;14.76;100.00;100858.50;5053689;28;20052;-76
2023/10/22 03:31:52;;;;;;;42.25;39.65;;;;;;;14.48;100.00;100867.94;5070194;28;20048;-78
2023/10/22 03:34:38;;;;;;;36.20;33.92;;;;;;;14.57;100.00;100865.78;5056391;28;20045;-77
2023/10/22 03:37:14;;;;;;;42.15;39.75;;;;;;;14.37;100.00;100874.06;5053770;28;20041;-76
2023/10/22 03:39:42;;;;;;;46.55;43.85;;;;;;;14.31;100.00;100881.13;5051116;28;20530;-76
2023/10/22 03:42:09;;;;;;;45.53;42.83;;;;;;;14.18;100.00;100865.28;5058124;28;20480;-77
2023/10/22 03:44:54;;;;;;;45.88;43.38;;;;;;;14.27;100.00;100863.91;5070873;28;20048;-77
2023/10/22 03:47:22;;;;;;;44.58;42.05;;;;;;;14.00;100.00;100874.13;5069722;28;20075;-77
2023/10/22 03:50:03;;;;;;;41.40;39.00;;;;;;;14.27;100.00;100874.59;5068701;28;20056;-77
2023/10/22 03:52:42;;;;;;;49.08;46.28;;;;;;;14.03;100.00;100870.19;5068139;28;20044;-77
2023/10/22 03:55:09;;;;;;;43.08;40.65;;;;;;;13.95;100.00;100863.31;5070336;28;20482;-78
2023/10/22 04:01:28;;;;;;;41.92;39.42;;;;;;;13.81;100.00;100873.34;5061492;28;20072;-77
2023/10/22 04:03:56;;;;;;;35.67;33.58;;;;;;;14.12;100.00;100863.50;5065829;28;20523;-77
2023/10/22 04:06:44;;;;;;;33.97;31.88;;;;;;;14.22;100.00;100869.13;5065803;28;20048;-76
2023/10/22 04:09:16;;;;;;;40.45;38.15;;;;;;;13.63;100.00;100858.13;5070063;28;20053;-78
2023/10/22 04:15:09;;;;;;;40.17;38.10;;;;;;;13.93;100.00;100852.03;5077358;28;20035;-76
2023/10/22 04:17:36;;;;;;;29.25;27.35;;;;;;;13.79;100.00;100851.38;5075486;28;20041;-76
2023/10/22 04:20:05;;;;;;;30.83;28.98;;;;;;;13.61;100.00;100844.19;5070722;28;20060;-77
2023/10/22 04:23:00;;;;;;;33.88;31.77;;;;;;;13.45;100.00;100850.13;5076521;28;20051;-77
2023/10/22 04:25:29;;;;;;;30.05;28.25;;;;;;;13.76;100.00;100862.50;5060792;28;20513;-77
2023/10/22 04:28:04;;;;;;;30.02;28.13;;;;;;;13.83;100.00;100870.44;5065986;28;20080;-77
2023/10/22 04:30:54;;;;;;;22.50;21.10;;;;;;;13.85;100.00;100874.50;5065790;28;20045;-77
2023/10/22 04:33:21;;;;;;;27.63;25.63;;;;;;;14.08;100.00;100878.34;5050433;28;20057;-76
2023/10/22 04:35:55;;;;;;;26.30;24.33;;;;;;;13.92;100.00;100887.81;5066980;28;20044;-77
2023/10/22 04:38:53;;;;;;;25.77;23.88;;;;;;;13.84;100.00;100874.75;5057394;28;20053;-78
2023/10/22 04:41:30;;;;;;;22.23;20.73;;;;;;;13.96;100.00;100880.97;5060796;28;20052;-76
2023/10/22 04:43:58;;;;;;;27.90;25.90;;;;;;;13.59;100.00;100862.28;5070571;28;20052;-78
2023/10/22 04:46:28;;;;;;;26.13;24.33;;;;;;;13.82;100.00;100871.47;5060285;28;20049;-77
2023/10/22 04:49:10;;;;;;;28.65;26.65;;;;;;;14.07;100.00;100871.38;5069619;28;20063;-77
2023/10/22 04:51:50;;;;;;;28.60;26.60;;;;;;;14.31;100.00;100864.28;5066129;28;20127;-77
2023/10/22 04:54:18;;;;;;;28.23;26.02;;;;;;;14.38;100.00;100857.00;5064472;28;20049;-76
2023/10/22 04:56:45;;;;;;;27.60;25.55;;;;;;;14.28;100.00;100854.03;5057443;28;20102;-77
2023/10/22 04:59:12;;;;;;;27.52;25.50;;;;;;;14.43;100.00;100846.41;5066953;28;20500;-77
2023/10/22 05:01:39;;;;;;;26.88;24.88;;;;;;;14.43;100.00;100865.13;5064826;28;20055;-76
2023/10/22 05:04:06;;;;;;;27.50;25.60;;;;;;;14.23;100.00;100872.63;5066633;28;20087;-76
2023/10/22 05:06:33;;;;;;;27.33;25.42;;;;;;;14.40;100.00;100879.78;5062708;28;20051;-77
2023/10/22 05:09:02;;;;;;;30.38;28.27;;;;;;;14.63;100.00;100895.09;5059363;28;20045;-77
2023/10/22 05:11:29;;;;;;;26.52;24.63;;;;;;;14.76;100.00;100882.56;5066419;28;20442;-77
2023/10/22 05:13:56;;;;;;;28.63;26.63;;;;;;;14.93;100.00;100888.06;5063459;28;20045;-77
2023/10/22 05:16:47;;;;;;;27.77;25.88;;;;;;;15.11;100.00;100879.94;5064292;28;20128;-77
2023/10/22 05:19:14;;;;;;;26.42;24.42;;;;;;;15.44;100.00;100871.34;5061035;28;20110;-77
2023/10/22 05:21:41;;;;;;;26.75;24.67;;;;;;;15.75;100.00;100878.19;5061498;28;20044;-75
2023/10/22 05:24:10;;;;;;;26.05;24.17;;;;;;;15.88;100.00;100862.88;5054824;28;20045;-76
2023/10/22 05:26:37;;;;;;;24.30;22.50;;;;;;;15.89;100.00;100851.16;5053027;28;20138;-77
2023/10/22 05:29:04;;;;;;;22.75;21.10;;;;;;;16.13;100.00;100844.66;5055772;28;20715;-75
2023/10/22 05:31:33;;;;;;;24.15;22.40;;;;;;;16.35;100.00;100834.06;5061241;28;20059;-75
2023/10/22 05:34:00;;;;;;;22.10;20.40;;;;;;;16.52;100.00;100835.94;5052536;28;20479;-76
2023/10/22 05:36:27;;;;;;;22.73;21.05;;;;;;;16.49;100.00;100827.34;5062324;28;20120;-76
2023/10/22 05:38:54;;;;;;;23.50;21.80;;;;;;;16.18;100.00;100836.69;5054629;28;20053;-76
2023/10/22 05:41:24;;;;;;;25.65;23.13;;;;;;;16.09;100.00;100834.63;5056107;28;20045;-77
2023/10/22 05:43:55;;;;;;;24.23;22.45;;;;;;;16.15;100.00;100836.34;5060500;28;20051;-76
2023/10/22 05:46:22;;;;;;;29.27;27.17;;;;;;;15.83;100.00;100858.25;5057166;28;20517;-77
2023/10/22 05:48:50;;;;;;;24.85;22.95;;;;;;;16.44;100.00;100867.44;5055940;28;20603;-76
2023/10/22 05:51:17;;;;;;;22.55;20.75;;;;;;;17.00;100.00;100870.28;5061247;28;20055;-76
2023/10/22 05:53:44;;;;;;;24.88;22.98;;;;;;;16.79;100.00;100871.00;5055786;28;20045;-77
2023/10/22 05:56:11;;;;;;;25.00;22.95;;;;;;;16.81;100.00;100874.28;5058959;28;20052;-77
2023/10/22 05:58:40;;;;;;;23.63;21.70;;;;;;;16.98;100.00;100860.88;5057997;28;20057;-77
2023/10/22 06:01:09;;;;;;;25.60;23.63;;;;;;;17.24;100.00;100851.31;5059395;28;20063;-76
2023/10/22 06:03:36;;;;;;;27.95;25.85;;;;;;;17.58;100.00;100846.69;5065774;28;20052;-76
2023/10/22 06:06:04;;;;;;;28.02;25.48;;;;;;;17.71;100.00;100821.31;5050791;28;20063;-76
2023/10/22 06:08:31;;;;;;;26.00;24.10;;;;;;;17.79;100.00;100818.22;5056762;28;20045;-77
2023/10/22 06:10:58;;;;;;;29.13;25.27;;;;;;;17.91;100.00;100824.25;5065057;28;20041;-76
2023/10/22 06:13:25;;;;;;;24.52;22.52;;;;;;;17.95;100.00;100816.53;5061162;28;20049;-75
2023/10/22 06:15:57;;;;;;;25.67;23.35;;;;;;;17.94;100.00;100806.81;5058068;28;20059;-76
2023/10/22 06:18:24;;;;;;;23.77;22.07;;;;;;;18.05;100.00;100795.13;5055119;28;20068;-75
2023/10/22 06:20:57;;;;;;;26.30;24.17;;;;;;;18.20;100.00;100792.59;4712312;28;10000284;-76
2023/10/22 06:23:24;;;;;;;23.30;21.60;;;;;;;18.58;100.00;100793.47;5056137;28;20049;-76
2023/10/22 06:25:51;;;;;;;22.73;21.02;;;;;;;18.66;100.00;100789.47;5055302;28;20067;-77
2023/10/22 06:28:18;;;;;;;24.30;22.50;;;;;;;18.45;100.00;100780.44;5063151;28;20051;-74
2023/10/22 06:30:45;;;;;;;24.40;22.63;;;;;;;18.66;100.00;100779.50;5061813;28;20421;-76
2023/10/22 06:33:13;;;;;;;23.95;22.20;;;;;;;18.62;100.00;100804.50;5053334;28;20053;-76
2023/10/22 06:35:40;;;;;;;24.55;22.75;;;;;;;18.65;100.00;100791.34;5054170;28;20152;-77
2023/10/22 06:38:07;;;;;;;23.75;22.05;;;;;;;18.72;100.00;100794.63;5052748;28;20049;-76
2023/10/22 06:40:36;;;;;;;23.80;22.10;;;;;;;19.07;100.00;100804.03;5054441;28;20060;-76
2023/10/22 06:43:04;;;;;;;23.27;21.48;;;;;;;19.41;100.00;100793.72;5059363;28;20784;-77
2023/10/22 06:45:32;;;;;;;25.48;23.58;;;;;;;19.80;100.00;100801.44;5053803;28;20135;-76
2023/10/22 06:48:00;;;;;;;26.30;24.40;;;;;;;20.09;100.00;100803.63;5067326;28;20052;-76
2023/10/22 06:50:32;;;;;;;26.23;24.33;;;;;;;20.23;100.00;100782.38;5061360;28;20057;-78
2023/10/22 06:52:59;;;;;;;;;;;;;;;20.48;100.00;100782.34;5061450;28;20056;-77
2023/10/22 06:55:27;;;;;;;25.65;23.80;;;;;;;20.48;100.00;100776.16;5066946;28;20369;-77
2023/10/22 06:57:54;;;;;;;26.42;24.52;;;;;;;20.33;100.00;100780.50;5059349;28;20067;-75
2023/10/22 07:00:21;;;;;;;26.02;24.13;;;;;;;20.40;100.00;100787.50;5057463;28;20052;-76
2023/10/22 07:02:48;;;;;;;24.52;22.70;;;;;;;20.54;100.00;100773.22;5059285;28;20055;-76
2023/10/22 07:05:17;;;;;;;24.02;22.13;;;;;;;20.70;100.00;100787.53;5050556;28;20048;-76
2023/10/22 07:08:19;;;;;;;24.13;22.33;;;;;;;20.77;100.00;100796.16;5054631;28;20512;-77
2023/10/22 07:10:46;;;;;;;24.42;22.52;;;;;;;20.79;100.00;100815.59;5060692;28;20516;-76
2023/10/22 07:13:13;;;;;;;24.85;22.95;;;;;;;20.88;100.00;100828.50;5052194;28;20055;-76
2023/10/22 07:15:40;;;;;;;24.88;22.98;;;;;;;21.14;100.00;100849.00;5057187;28;20067;-76
2023/10/22 07:18:13;;;;;;;25.83;23.92;;;;;;;21.11;100.00;100860.34;5065617;28;20600;-74
2023/10/22 07:20:40;;;;;;;25.13;23.30;;;;;;;21.12;100.00;100853.88;5063622;28;20059;-77
2023/10/22 07:23:25;;;;;;;25.27;23.38;;;;;;;21.19;100.00;100859.00;5066882;28;20047;-78
2023/10/22 07:25:57;;;;;;;27.60;25.60;;;;;;;21.16;100.00;100854.94;5055258;28;20049;-78
2023/10/22 07:28:24;;;;;;;29.90;27.70;;;;;;;21.46;100.00;100859.50;5062777;28;20048;-76
2023/10/22 07:30:52;;;;;;;25.65;23.75;;;;;;;21.66;100.00;100846.97;5055981;28;20044;-77
2023/10/22 07:33:20;;;;;;;25.50;23.70;;;;;;;21.89;100.00;100853.63;5050138;28;20045;-77
2023/10/22 07:35:54;;;;;;;25.42;23.42;;;;;;;21.78;100.00;100847.47;5060979;28;20103;-77
2023/10/22 07:38:56;;;;;;;25.00;23.10;;;;;;;21.79;100.00;100843.69;5062416;28;20431;-77
2023/10/22 07:41:26;;;;;;;25.08;23.17;;;;;;;21.93;100.00;100844.69;5062919;28;20045;-76
2023/10/22 07:44:29;;;;;;;25.30;23.40;;;;;;;22.02;100.00;100844.09;5053500;28;20060;-76
2023/10/22 07:46:56;;;;;;;24.92;23.02;;;;;;;21.95;100.00;100839.00;5062557;28;20768;-77
2023/10/22 07:49:24;;;;;;;24.50;22.60;;;;;;;21.89;100.00;100840.13;5051455;28;20051;-76
2023/10/22 07:52:09;;;;;;;23.92;22.13;;;;;;;21.49;100.00;100836.53;5055402;28;20060;-78
2023/10/22 07:54:37;;;;;;;24.50;22.60;;;;;;;23.02;100.00;100834.72;5052797;28;20055;-77
2023/10/22 07:57:05;;;;;;;25.85;23.95;;;;;;;22.54;100.00;100837.28;5063032;28;20049;-76
2023/10/22 07:59:32;;;;;;;26.00;24.10;;;;;;;22.81;100.00;100832.19;5061685;28;20761;-76
2023/10/22 08:02:14;;;;;;;26.50;24.60;;;;;;;22.46;100.00;100827.09;5059517;28;20048;-76
2023/10/22 08:04:41;;;;;;;27.85;25.75;;;;;;;22.95;100.00;100821.53;5069500;28;20451;-76
2023/10/22 08:07:17;;;;;;;28.60;26.40;;;;;;;22.40;100.00;100810.06;5051692;28;20053;-77
2023/10/22 08:09:46;;;;;;;28.13;25.95;;;;;;;22.89;100.00;100814.50;5054877;28;20147;-76
2023/10/22 08:12:13;;;;;;;27.58;25.48;;;;;;;23.25;100.00;100820.38;5066233;28;20090;-76
2023/10/22 08:14:40;;;;;;;25.52;23.52;;;;;;;23.05;100.00;100826.81;5073138;28;20570;-77
2023/10/22 08:17:14;;;;;;;24.92;23.02;;;;;;;24.35;100.00;100823.00;5061552;28;20060;-76
2023/10/22 08:19:43;;;;;;;27.45;25.45;;;;;;;23.13;100.00;100832.72;5056772;28;20059;-76
2023/10/22 08:22:10;;;;;;;26.05;24.15;;;;;;;23.71;100.00;100836.13;5060280;28;20131;-76
2023/10/22 08:24:40;;;;;;;26.85;24.65;;;;;;;23.67;100.00;100843.19;5058310;28;20071;-78
2023/10/22 08:27:11;;;;;;;26.15;23.95;;;;;;;24.05;99.63;100837.03;5054859;28;20428;-76
2023/10/22 08:29:38;;;;;;;25.80;23.80;;;;;;;25.31;100.00;100840.66;5072815;28;20811;-76
2023/10/22 08:32:29;;;;;;;24.73;22.83;;;;;;;24.16;100.00;100839.31;5061663;28;20080;-75
2023/10/22 08:34:56;;;;;;;25.35;23.45;;;;;;;24.21;91.94;100836.53;5060656;28;20048;-75
2023/10/22 08:37:23;;;;;;;27.70;25.60;;;;;;;23.32;100.00;100841.72;5065083;28;20086;-76
2023/10/22 08:39:51;;;;;;;27.05;24.85;;;;;;;24.29;88.25;100831.53;5068141;28;20489;-77
2023/10/22 08:42:24;;;;;;;25.40;23.30;;;;;;;25.48;78.36;100834.63;5059461;28;20048;-76
2023/10/22 08:44:52;;;;;;;25.95;23.95;;;;;;;25.08;75.23;100848.69;5068030;28;20049;-76
2023/10/22 08:47:36;;;;;;;27.08;24.98;;;;;;;24.29;89.19;100835.03;5062424;28;20488;-78
2023/10/22 08:50:21;;;;;;;52.40;46.78;;;;;;;26.07;74.29;100834.75;5064709;28;20037;-77
2023/10/22 08:53:03;;;;;;;24.45;22.45;;;;;;;26.11;64.78;100833.00;5066398;28;20052;-76
2023/10/22 08:55:30;;;;;;;25.70;23.70;;;;;;;25.44;69.42;100836.34;5069840;28;20060;-76
2023/10/22 08:58:04;;;;;;;29.33;27.33;;;;;;;26.56;64.72;100828.41;5068688;28;20134;-76
2023/10/22 09:00:34;;;;;;;27.10;25.02;;;;;;;26.06;67.16;100835.88;5070107;28;20048;-77
2023/10/22 09:03:02;;;;;;;27.75;25.75;;;;;;;25.61;70.32;100835.72;5071007;28;20048;-77
2023/10/22 09:05:36;;;;;;;27.88;25.92;;;;;;;26.44;70.82;100834.38;5066918;28;20127;-77
2023/10/22 09:08:04;;;;;;;25.92;23.92;;;;;;;26.50;62.78;100826.94;5063383;28;20059;-77
2023/10/22 09:10:40;;;;;;;26.60;24.60;;;;;;;27.18;63.44;100828.47;5065082;28;20080;-75
2023/10/22 09:13:16;;;;;;;26.38;24.38;;;;;;;26.30;63.75;100828.22;5065464;28;20052;-77
2023/10/22 09:15:54;;;;;;;26.45;24.35;;;;;;;27.00;65.83;100834.13;5063110;28;20053;-77
2023/10/22 09:18:28;;;;;;;27.88;25.67;;;;;;;27.22;59.92;100823.16;5065208;28;20051;-78
2023/10/22 09:21:06;;;;;;;27.05;24.85;;;;;;;26.27;61.68;100817.94;5063972;28;20052;-78
2023/10/22 09:24:08;;;;;;;29.02;26.83;;;;;;;27.74;59.14;100817.84;5065304;28;20057;-77
2023/10/22 09:26:46;;;;;;;26.80;24.73;;;;;;;26.46;71.69;100799.50;5057036;28;20531;-76
2023/10/22 09:29:15;;;;;;;27.65;25.55;;;;;;;26.76;65.81;100799.88;5064781;28;20497;-76
2023/10/22 09:31:50;;;;;;;27.70;25.60;;;;;;;26.70;59.39;100787.50;5054839;28;20049;-76
2023/10/22 09:34:27;;;;;;;29.10;26.90;;;;;;;27.64;63.05;100780.75;5063398;28;20053;-77
2023/10/22 09:36:54;;;;;;;27.52;25.35;;;;;;;27.57;61.97;100785.09;5066280;28;20045;-77
2023/10/22 09:39:34;;;;;;;26.25;24.25;;;;;;;27.11;58.65;100768.13;5070554;28;20432;-77
2023/10/22 09:42:03;;;;;;;26.67;24.58;;;;;;;25.77;65.77;100774.44;5060118;28;20485;-77
2023/10/22 09:44:40;;;;;;;27.77;25.67;;;;;;;26.42;61.57;100768.56;5056537;28;20436;-76
2023/10/22 09:47:08;;;;;;;26.83;24.63;;;;;;;27.27;64.67;100752.16;5058882;28;20060;-76
2023/10/22 09:49:38;;;;;;;25.15;23.15;;;;;;;29.88;52.27;100745.94;5065265;28;20541;-76
2023/10/22 09:52:07;;;;;;;26.10;24.00;;;;;;;29.54;48.64;100749.75;5065836;28;20056;-76
2023/10/22 09:54:37;;;;;;;25.40;23.20;;;;;;;29.71;47.68;100746.88;5054998;28;20507;-76
2023/10/22 09:57:09;;;;;;;24.50;22.40;;;;;;;27.95;48.98;100749.81;5057122;28;20045;-76
2023/10/22 09:59:38;;;;;;;25.15;22.95;;;;;;;28.01;50.34;100748.53;5067312;28;20052;-77
2023/10/22 10:02:05;;;;;;;25.40;23.30;;;;;;;29.10;53.21;100741.81;5070958;28;20590;-76
2023/10/22 10:05:01;;;;;;;26.10;24.00;;;;;;;29.39;49.25;100742.94;5068706;28;20044;-76
2023/10/22 10:08:06;;;;;;;25.77;23.58;;;;;;;28.87;46.55;100735.81;5056057;28;20076;-76
2023/10/22 10:10:46;;;;;;;26.15;24.05;;;;;;;28.08;52.81;100737.16;5060311;28;20529;-77
2023/10/22 10:13:28;;;;;;;25.45;23.35;;;;;;;28.30;55.49;100720.53;5067409;28;20056;-76
2023/10/22 10:16:05;;;;;;;25.80;23.60;;;;;;;30.19;43.78;100714.56;5055771;28;20064;-76
2023/10/22 10:19:00;;;;;;;25.92;23.70;;;;;;;29.58;44.19;100717.84;5067245;28;20048;-76
2023/10/22 10:21:47;;;;;;;26.70;24.60;;;;;;;27.19;51.51;100717.50;5051429;28;20052;-76
2023/10/22 10:24:19;;;;;;;25.40;23.40;;;;;;;28.17;53.69;100718.81;5058573;28;20070;-75
2023/10/22 10:26:52;;;;;;;25.13;23.15;;;;;;;29.30;46.22;100715.63;5067797;28;20512;-76
2023/10/22 10:29:32;;;;;;;26.95;25.05;;;;;;;29.18;42.87;100710.09;5060695;28;20088;-77
2023/10/22 10:32:21;;;;;;;26.38;24.27;;;;;;;28.95;48.74;100713.06;5058827;28;20061;-76
2023/10/22 10:35:02;;;;;;;24.67;22.67;;;;;;;27.99;49.32;100706.28;5063350;28;20059;-76
2023/10/22 10:37:31;;;;;;;25.50;23.50;;;;;;;28.22;47.52;100704.97;5065221;28;20057;-76
2023/10/22 10:40:07;;;;;;;26.67;24.58;;;;;;;28.47;48.85;100705.25;5056286;28;20075;-75
2023/10/22 10:42:49;;;;;;;30.15;27.95;;;;;;;26.34;58.48;100708.63;5068861;28;20474;-77
2023/10/22 10:45:26;;;;;;;29.45;27.45;;;;;;;24.39;73.75;100709.25;5062008;28;20122;-77
2023/10/22 10:48:03;;;;;;;28.42;26.33;;;;;;;26.55;61.48;100704.28;5061076;28;20521;-76
2023/10/22 10:50:30;;;;;;;27.20;25.20;;;;;;;25.56;68.89;100703.38;5053534;28;20044;-76
2023/10/22 10:52:59;;;;;;;26.52;24.42;;;;;;;25.58;68.40;100704.69;5068746;28;20143;-77
2023/10/22 10:55:32;;;;;;;28.10;25.70;;;;;;;27.24;68.97;100692.00;5062904;28;20059;-76
2023/10/22 10:58:15;;;;;;;27.00;24.80;;;;;;;27.37;56.95;100691.84;5067469;28;20049;-76
2023/10/22 11:00:45;;;;;;;26.63;24.52;;;;;;;25.52;64.90;100691.53;5060556;28;20049;-77
2023/10/22 11:03:26;;;;;;;26.50;24.50;;;;;;;26.39;64.82;100692.97;5061148;28;20436;-76
2023/10/22 11:05:54;;;;;;;26.23;24.25;;;;;;;26.41;62.47;100685.25;5069185;28;20048;-77
2023/10/22 11:08:22;;;;;;;26.33;24.33;;;;;;;28.53;58.31;100676.63;5053116;28;20055;-77
2023/10/22 11:10:57;;;;;;;26.67;24.67;;;;;;;27.29;54.54;100679.00;5054086;28;20057;-78
2023/10/22 11:13:31;;;;;;;25.90;24.00;;;;;;;27.42;52.78;100681.94;5071054;28;20055;-77
2023/10/22 11:16:11;;;;;;;24.63;22.73;;;;;;;28.05;51.58;100678.53;5067506;28;20052;-76
2023/10/22 11:21:39;;;;;;;23.75;21.85;;;;;;;25.31;66.31;100681.09;5083051;27;20409;-77
2023/10/22 11:24:07;;;;;;;25.02;23.02;;;;;;;26.13;64.93;100687.34;5074821;28;20053;-76
2023/10/22 11:26:35;;;;;;;27.13;25.02;;;;;;;24.86;69.74;100691.78;5073893;28;20056;-77
2023/10/22 11:29:02;;;;;;;94.78;80.85;;;;;;;25.61;68.71;100676.09;5082501;28;20071;-75
2023/10/22 11:31:38;;;;;;;28.25;26.25;;;;;;;23.68;82.51;100686.75;5077891;28;20118;-76
2023/10/22 11:34:15;;;;;;;29.00;26.90;;;;;;;25.99;74.46;100671.13;5085008;28;20431;-77
2023/10/22 11:37:01;;;;;;;28.95;26.95;;;;;;;24.98;80.22;100677.72;5080129;28;20479;-77
2023/10/22 11:39:37;;;;;;;30.00;27.90;;;;;;;25.81;70.20;100675.63;5069146;28;20049;-77